ハリファックス の空港の天気 - METARとTAF

ハリファックス国際空港 ( CYHZ / YHZ ) - カナダ ノバスコシア州ハリファックス
飛行場実況気象(Metar)
観測時間04/25 11:00 ADT (04/25 14:00 UTC)
風向・風速南西 6m/s 瞬間風速10m/s
視程10km以上
天気現象
全天の8割程度の雲 雲底高度 8530m
気温14℃
湿度59%
気圧1025.2hPa
METARCYHZ 251400Z 23012G20KT 15SM BKN280 14/06 A3026 RMK CI5 SLP252
過去の天気等 Google飛行場航空写真 Wunderground天気予報

過去48時間のMETAR

飛行場予報(TAF)
発表時間: 4/25 11:39 ADT (4/25 14:39 UTC)
予報対象時間: 25日12時 ADT ~ 26日9時 ADT
風向・風速南西 6m/s 瞬間風速 11m/s
視程10km以上
全天の8割程度の雲 雲底高度 7,320m
25日20時 ADT から
風向・風速南 8m/s
視程10km以上
全天の8割程度の雲 雲底高度 1,520m
全天を覆う雲 雲底高度 6,100m
26日0時 ADT から
風向・風速南 8m/s
視程10km以上
天気現象弱い雨
全天の4割程度の雲 雲底高度 610m
全天を覆う雲 雲底高度 1,220m
26日5時 ADT から
風向・風速南 5m/s
天気現象弱い雨
全天の4割程度の雲 雲底高度 460m
全天を覆う雲 雲底高度 910m
26日5時 ADT から 確率 30% で
全天の8割程度の雲 雲底高度 150m
26日8時 ADT から
風向・風速南 8m/s 瞬間風速 15m/s
視程3,220m
天気現象弱い雨 もや
全天を覆う雲 雲底高度 150m
TAF CYHZ 251439Z 2515/2612 23012G22KT P6SM BKN240
FM252300 18015KT P6SM BKN050 OVC200
FM260300 18015KT P6SM -RA SCT020 OVC040
FM260800 17010KT WS010/17035KT P6SM -RA SCT015 OVC030
PROB30 2608/2611 BKN005
FM261100 17015G30KT 2SM -RA BR OVC005 RMK NXT FCST BY 251800Z